createdAt,value
2022-10-22T00:02:21.133Z,98065.19
2022-10-22T00:04:48.780Z,98068.88
2022-10-22T00:07:16.289Z,98068.66
2022-10-22T00:09:42.965Z,98072.47
2022-10-22T00:12:10.062Z,98071.19
2022-10-22T00:14:37.321Z,98061.78
2022-10-22T00:17:05.867Z,98058.75
2022-10-22T00:19:37.538Z,98059.50
2022-10-22T00:22:05.833Z,98057.03
2022-10-22T00:24:34.218Z,98058.50
2022-10-22T00:27:01.426Z,98053.81
2022-10-22T00:29:28.361Z,98067.94
2022-10-22T00:34:23.053Z,98055.00
2022-10-22T00:36:50.344Z,98062.25
2022-10-22T00:39:18.409Z,98065.38
2022-10-22T00:41:46.656Z,98069.28
2022-10-22T00:44:50.809Z,98060.38
2022-10-22T00:47:18.893Z,98063.78
2022-10-22T00:49:46.885Z,98064.28
2022-10-22T00:52:14.347Z,98066.94
2022-10-22T00:54:41.450Z,98060.25
2022-10-22T00:57:08.374Z,98055.94
2022-10-22T00:59:35.728Z,98056.75
2022-10-22T01:02:02.369Z,98055.00
2022-10-22T01:04:29.058Z,98049.31
2022-10-22T01:06:55.815Z,98042.75
2022-10-22T01:09:31.516Z,98054.19
2022-10-22T01:12:04.302Z,98044.28
2022-10-22T01:14:40.223Z,98042.25
2022-10-22T01:17:23.848Z,98030.81
2022-10-22T01:20:12.169Z,98032.38
2022-10-22T01:22:41.791Z,98023.53
2022-10-22T01:25:12.483Z,98006.75
2022-10-22T01:27:53.778Z,98001.88
2022-10-22T01:30:20.624Z,98012.34
2022-10-22T01:32:52.603Z,98019.13
2022-10-22T01:35:24.030Z,98021.84
2022-10-22T01:37:54.736Z,98021.47
2022-10-22T01:40:22.120Z,98022.13
2022-10-22T01:43:00.065Z,98030.84
2022-10-22T01:45:27.562Z,98054.03
2022-10-22T01:48:06.537Z,98048.34
2022-10-22T01:50:41.155Z,98041.66
2022-10-22T01:53:22.881Z,98039.75
2022-10-22T01:55:59.172Z,98038.72
2022-10-22T01:58:44.609Z,98041.66
2022-10-22T02:01:23.986Z,98038.00
2022-10-22T02:04:01.420Z,98043.94
2022-10-22T02:06:29.846Z,98051.00
2022-10-22T02:08:57.574Z,98046.44
2022-10-22T02:11:24.230Z,98050.63
2022-10-22T02:13:53.603Z,98052.53
2022-10-22T02:16:47.987Z,98056.38
2022-10-22T02:19:20.659Z,98067.44
2022-10-22T02:21:47.380Z,98073.63
2022-10-22T02:24:14.659Z,98075.44
2022-10-22T02:26:54.408Z,98073.25
2022-10-22T02:29:36.699Z,98082.03
2022-10-22T02:32:06.066Z,98079.38
2022-10-22T02:34:32.858Z,98070.75
2022-10-22T02:37:00.507Z,98062.78
2022-10-22T02:39:27.739Z,98072.22
2022-10-22T02:41:55.662Z,98071.22
2022-10-22T02:44:22.568Z,98070.09
2022-10-22T02:46:50.344Z,98063.31
2022-10-22T02:49:17.221Z,98071.50
2022-10-22T02:51:43.918Z,98079.28
2022-10-22T02:54:10.805Z,98090.78
2022-10-22T02:56:38.082Z,98094.44
2022-10-22T02:59:04.873Z,98083.34
2022-10-22T03:01:31.575Z,98074.72
2022-10-22T03:03:58.281Z,98078.69
2022-10-22T03:08:53.277Z,98071.50
2022-10-22T03:11:19.948Z,98067.81
2022-10-22T03:13:46.551Z,98065.44
2022-10-22T03:16:13.230Z,98057.06
2022-10-22T03:18:39.823Z,98056.72
2022-10-22T03:21:11.477Z,98052.00
2022-10-22T03:23:39.919Z,98068.81
2022-10-22T03:26:07.211Z,98068.56
2022-10-22T03:28:35.366Z,98065.91
2022-10-22T03:31:01.967Z,98056.72
2022-10-22T03:33:28.573Z,98054.66
2022-10-22T03:35:55.319Z,98050.94
2022-10-22T03:38:22.106Z,98054.34
2022-10-22T03:40:49.117Z,98047.69
2022-10-22T03:43:16.364Z,98038.28
2022-10-22T03:45:43.028Z,98027.59
2022-10-22T03:48:09.659Z,98026.41
2022-10-22T03:50:36.309Z,98028.91
2022-10-22T03:53:02.979Z,98030.53
2022-10-22T03:55:29.958Z,98039.66
2022-10-22T03:57:56.605Z,98042.31
2022-10-22T04:00:23.269Z,98046.97
2022-10-22T04:02:49.980Z,98053.66
2022-10-22T04:05:16.696Z,98053.41
2022-10-22T04:07:43.590Z,98050.47
2022-10-22T04:10:10.481Z,98048.19
2022-10-22T04:12:37.124Z,98061.53
2022-10-22T04:15:04.901Z,98052.84
2022-10-22T04:17:36.224Z,98054.63
2022-10-22T04:20:04.253Z,98067.88
2022-10-22T04:22:33.762Z,98078.16
2022-10-22T04:25:00.399Z,98099.22
2022-10-22T04:27:30.884Z,98077.00
2022-10-22T04:29:57.469Z,98075.09
2022-10-22T04:32:26.176Z,98057.50
2022-10-22T04:34:52.799Z,98066.25
2022-10-22T04:37:19.576Z,98069.88
2022-10-22T04:39:46.276Z,98070.88
2022-10-22T04:42:13.010Z,98077.66
2022-10-22T04:44:39.644Z,98081.19
2022-10-22T04:47:06.329Z,98079.50
2022-10-22T04:49:32.962Z,98083.25
2022-10-22T04:51:59.654Z,98078.78
2022-10-22T04:54:29.030Z,98071.63
2022-10-22T04:56:58.736Z,98072.00
2022-10-22T04:59:25.396Z,98083.84
2022-10-22T05:01:52.006Z,98082.66
2022-10-22T05:04:19.791Z,98083.47
2022-10-22T05:06:46.955Z,98085.66
2022-10-22T05:09:19.148Z,98094.28
2022-10-22T05:11:48.827Z,98100.25
2022-10-22T05:14:21.682Z,98100.78
2022-10-22T05:16:49.139Z,98095.41
2022-10-22T05:19:17.705Z,98095.03
2022-10-22T05:21:44.271Z,98100.06
2022-10-22T05:24:10.976Z,98111.16
2022-10-22T05:26:37.518Z,98119.13
2022-10-22T05:29:04.241Z,98120.97
2022-10-22T05:31:30.779Z,98117.50
2022-10-22T05:33:57.312Z,98130.88
2022-10-22T05:36:25.990Z,98131.69
2022-10-22T05:38:52.999Z,98130.59
2022-10-22T05:41:20.535Z,98141.63
2022-10-22T05:43:47.218Z,98152.44
2022-10-22T05:46:18.674Z,98154.91
2022-10-22T05:48:55.004Z,98163.28
2022-10-22T05:51:21.928Z,98171.78
2022-10-22T05:53:51.570Z,98174.75
2022-10-22T05:56:18.215Z,98183.09
2022-10-22T05:58:45.541Z,98186.03
2022-10-22T06:01:22.397Z,98196.66
2022-10-22T06:03:55.429Z,98188.69
2022-10-22T06:06:31.152Z,98193.19
2022-10-22T06:09:00.012Z,98207.69
2022-10-22T06:11:28.888Z,98199.59
2022-10-22T06:13:59.057Z,98205.56
2022-10-22T06:16:25.644Z,98207.88
2022-10-22T06:18:52.226Z,98212.09
2022-10-22T06:21:18.871Z,98212.63
2022-10-22T06:23:45.425Z,98224.25
2022-10-22T06:26:12.059Z,98233.19
2022-10-22T06:28:38.774Z,98228.31
2022-10-22T06:31:05.440Z,98224.81
2022-10-22T06:33:32.465Z,98232.81
2022-10-22T06:36:09.306Z,98241.63
2022-10-22T06:38:35.989Z,98243.09
2022-10-22T06:41:06.116Z,98253.19
2022-10-22T06:43:32.625Z,98255.84
2022-10-22T06:46:00.593Z,98255.03
2022-10-22T06:48:27.119Z,98252.66
2022-10-22T06:50:53.607Z,98255.31
2022-10-22T06:55:47.599Z,98266.78
2022-10-22T06:58:14.089Z,98267.88
2022-10-22T07:00:40.586Z,98275.84
2022-10-22T07:03:07.072Z,98278.66
2022-10-22T07:05:34.190Z,98274.88
2022-10-22T07:08:00.667Z,98286.28
2022-10-22T07:10:29.963Z,98287.19
2022-10-22T07:12:57.723Z,98288.56
2022-10-22T07:15:24.201Z,98294.44
2022-10-22T07:17:51.793Z,98298.19
2022-10-22T07:20:19.122Z,98309.59
2022-10-22T07:22:45.831Z,98309.84
2022-10-22T07:25:12.366Z,98313.53
2022-10-22T07:27:39.193Z,98321.16
2022-10-22T07:30:06.192Z,98322.25
2022-10-22T07:32:32.733Z,98320.94
2022-10-22T07:34:59.210Z,98319.66
2022-10-22T07:37:25.687Z,98317.72
2022-10-22T07:39:52.205Z,98318.97
2022-10-22T07:42:18.827Z,98326.81
2022-10-22T07:44:45.465Z,98311.25
2022-10-22T07:47:12.021Z,98324.63
2022-10-22T07:49:38.542Z,98332.97
2022-10-22T07:52:05.225Z,98328.03
2022-10-22T07:54:31.699Z,98324.75
2022-10-22T07:56:58.186Z,98336.88
2022-10-22T07:59:24.676Z,98327.03
2022-10-22T08:01:51.193Z,98333.22
2022-10-22T08:04:17.651Z,98328.59
2022-10-22T08:06:47.168Z,98334.31
2022-10-22T08:09:13.978Z,98344.97
2022-10-22T08:11:40.601Z,98337.34
2022-10-22T08:14:07.080Z,98344.53
2022-10-22T08:16:33.560Z,98340.13
2022-10-22T08:19:00.109Z,98341.94
2022-10-22T08:21:26.759Z,98345.72
2022-10-22T08:23:53.383Z,98347.22
2022-10-22T08:26:20.035Z,98344.00
2022-10-22T08:28:46.560Z,98346.31
2022-10-22T08:31:13.484Z,98349.19
2022-10-22T08:33:40.020Z,98343.97
2022-10-22T08:36:06.869Z,98344.31
2022-10-22T08:38:35.267Z,98352.31
2022-10-22T08:41:10.973Z,98356.69
2022-10-22T08:43:37.471Z,98357.66
2022-10-22T08:46:08.354Z,98356.06
2022-10-22T08:48:46.011Z,98346.28
2022-10-22T08:51:13.584Z,98350.53
2022-10-22T08:53:41.929Z,98354.88
2022-10-22T08:56:08.925Z,98356.03
2022-10-22T08:58:38.224Z,98344.72
2022-10-22T09:01:12.729Z,98355.75
2022-10-22T09:03:58.091Z,98358.28
2022-10-22T09:06:25.682Z,98354.66
2022-10-22T09:08:55.287Z,98361.69
2022-10-22T09:11:21.840Z,98348.38
2022-10-22T09:13:48.688Z,98357.69
2022-10-22T09:16:19.492Z,98355.28
2022-10-22T09:18:55.702Z,98358.28
2022-10-22T09:21:40.684Z,98355.59
2022-10-22T09:24:14.308Z,98358.09
2022-10-22T09:26:41.785Z,98359.59
2022-10-22T09:29:10.588Z,98357.00
2022-10-22T09:31:37.272Z,98355.78
2022-10-22T09:34:07.520Z,98352.53
2022-10-22T09:36:34.457Z,98359.16
2022-10-22T09:39:01.208Z,98360.25
2022-10-22T09:41:29.828Z,98366.25
2022-10-22T09:43:56.882Z,98354.97
2022-10-22T09:46:24.860Z,98367.34
2022-10-22T09:49:06.730Z,98362.22
2022-10-22T09:51:37.968Z,98368.03
2022-10-22T09:54:13.959Z,98367.47
2022-10-22T09:56:43.475Z,98380.47
2022-10-22T09:59:16.388Z,98375.75
2022-10-22T10:01:44.511Z,98377.78
2022-10-22T10:04:12.718Z,98383.53
2022-10-22T10:06:40.571Z,98389.75
2022-10-22T10:09:16.370Z,98387.06
2022-10-22T10:11:43.185Z,98395.69
2022-10-22T10:14:31.090Z,98399.44
2022-10-22T10:16:59.212Z,98394.09
2022-10-22T10:19:28.602Z,98396.56
2022-10-22T10:22:01.202Z,98401.91
2022-10-22T10:24:27.682Z,98397.59
2022-10-22T10:27:14.424Z,98395.97
2022-10-22T10:29:52.928Z,98404.41
2022-10-22T10:32:26.247Z,98406.06
2022-10-22T10:35:11.452Z,98404.63
2022-10-22T10:37:41.013Z,98414.31
2022-10-22T10:40:23.670Z,98411.63
2022-10-22T10:42:55.831Z,98417.00
2022-10-22T10:45:34.545Z,98410.19
2022-10-22T10:48:07.076Z,98418.25
2022-10-22T10:50:52.449Z,98418.25
2022-10-22T10:53:21.931Z,98424.81
2022-10-22T10:56:11.759Z,98423.38
2022-10-22T10:58:45.049Z,98426.69
2022-10-22T11:01:18.538Z,98426.31
2022-10-22T11:03:52.284Z,98421.78
2022-10-22T11:06:21.667Z,98422.56
2022-10-22T11:09:00.290Z,98432.47
2022-10-22T11:11:30.490Z,98414.09
2022-10-22T11:14:35.630Z,98412.66
2022-10-22T11:17:03.866Z,98412.88
2022-10-22T11:19:50.338Z,98415.34
2022-10-22T11:22:26.637Z,98404.84
2022-10-22T11:25:16.773Z,98411.66
2022-10-22T11:27:51.643Z,98409.38
2022-10-22T11:30:19.719Z,98410.59
2022-10-22T11:32:47.333Z,98414.50
2022-10-22T11:35:15.385Z,98413.31
2022-10-22T11:37:42.065Z,98417.00
2022-10-22T11:40:14.596Z,98406.91
2022-10-22T11:42:45.292Z,98411.66
2022-10-22T11:45:14.799Z,98403.81
2022-10-22T11:47:53.500Z,98405.69
2022-10-22T11:50:20.346Z,98400.72
2022-10-22T11:53:07.851Z,98394.53
2022-10-22T11:55:46.093Z,98395.56
2022-10-22T11:58:31.284Z,98400.31
2022-10-22T12:01:09.972Z,98398.03
2022-10-22T12:03:41.169Z,98396.19
2022-10-22T12:06:15.860Z,98399.50
2022-10-22T12:08:48.899Z,98398.25
2022-10-22T12:11:35.783Z,98397.00
2022-10-22T12:14:03.891Z,98397.00
2022-10-22T12:16:54.541Z,98397.00
2022-10-22T12:19:23.017Z,98392.88
2022-10-22T12:21:53.787Z,98393.53
2022-10-22T12:24:21.321Z,98394.13
2022-10-22T12:26:49.896Z,98391.03
2022-10-22T12:29:16.618Z,98384.84
2022-10-22T12:31:44.435Z,98389.38
2022-10-22T12:34:13.404Z,98386.28
2022-10-22T12:36:39.896Z,98383.16
2022-10-22T12:39:11.324Z,98382.78
2022-10-22T12:41:38.479Z,98381.91
2022-10-22T12:44:05.425Z,98373.91
2022-10-22T12:46:35.185Z,98373.09
2022-10-22T12:49:02.540Z,98376.16
2022-10-22T12:51:29.057Z,98380.91
2022-10-22T12:54:01.938Z,98375.50
2022-10-22T12:56:29.104Z,98378.00
2022-10-22T12:58:57.333Z,98365.63
2022-10-22T13:01:24.625Z,98376.16
2022-10-22T13:03:51.746Z,98368.53
2022-10-22T13:06:18.272Z,98365.28
2022-10-22T13:09:00.108Z,98369.78
2022-10-22T13:11:48.096Z,98367.53
2022-10-22T13:14:30.835Z,98369.00
2022-10-22T13:17:06.520Z,98368.97
2022-10-22T13:19:36.990Z,98376.00
2022-10-22T13:22:03.461Z,98370.00
2022-10-22T13:24:31.089Z,98368.56
2022-10-22T13:26:57.588Z,98370.63
2022-10-22T13:29:24.153Z,98363.59
2022-10-22T13:31:52.019Z,98364.44
2022-10-22T13:34:22.628Z,98362.38
2022-10-22T13:36:49.369Z,98358.06
2022-10-22T13:39:18.944Z,98370.63
2022-10-22T13:41:45.703Z,98358.44
2022-10-22T13:44:12.266Z,98353.66
2022-10-22T13:46:42.694Z,98357.44
2022-10-22T13:49:16.458Z,98363.59
2022-10-22T13:51:43.151Z,98365.66
2022-10-22T13:54:11.150Z,98370.25
2022-10-22T13:56:37.692Z,98367.72
2022-10-22T13:59:04.249Z,98353.09
2022-10-22T14:01:30.771Z,98356.19
2022-10-22T14:03:59.012Z,98357.84
2022-10-22T14:06:28.598Z,98350.63
2022-10-22T14:08:58.391Z,98358.25
2022-10-22T14:11:27.285Z,98358.69
2022-10-22T14:13:54.593Z,98357.44
2022-10-22T14:16:22.130Z,98358.88
2022-10-22T14:18:48.893Z,98364.88
2022-10-22T14:21:15.607Z,98361.56
2022-10-22T14:23:43.137Z,98359.72
2022-10-22T14:26:12.945Z,98364.03
2022-10-22T14:28:46.057Z,98360.53
2022-10-22T14:31:26.589Z,98357.88
2022-10-22T14:33:53.127Z,98354.16
2022-10-22T14:36:19.653Z,98360.31
2022-10-22T14:38:46.820Z,98362.78
2022-10-22T14:41:23.509Z,98364.47
2022-10-22T14:43:50.324Z,98363.63
2022-10-22T14:46:17.327Z,98356.41
2022-10-22T14:48:43.892Z,98356.63
2022-10-22T14:51:14.186Z,98359.09
2022-10-22T14:53:41.067Z,98357.00
2022-10-22T14:56:09.770Z,98355.78
2022-10-22T14:58:37.449Z,98356.19
2022-10-22T15:01:04.210Z,98363.19
2022-10-22T15:03:31.491Z,98362.09
2022-10-22T15:06:02.550Z,98365.41
2022-10-22T15:08:29.234Z,98363.53
2022-10-22T15:11:03.527Z,98360.63
2022-10-22T15:13:30.251Z,98369.03
2022-10-22T15:15:58.208Z,98370.88
2022-10-22T15:18:31.766Z,98374.59
2022-10-22T15:20:59.295Z,98382.00
2022-10-22T15:23:29.392Z,98377.47
2022-10-22T15:26:00.697Z,98378.06
2022-10-22T15:28:27.259Z,98381.34
2022-10-22T15:31:00.909Z,98372.69
2022-10-22T15:33:32.262Z,98372.88
2022-10-22T15:35:59.069Z,98371.66
2022-10-22T15:41:05.450Z,98362.38
2022-10-22T15:43:35.908Z,98366.66
2022-10-22T15:46:25.133Z,98362.72
2022-10-22T15:48:52.663Z,98366.63
2022-10-22T15:51:30.913Z,98360.44
2022-10-22T15:53:58.689Z,98364.13
2022-10-22T15:56:29.589Z,98374.78
2022-10-22T15:59:09.831Z,98371.25
2022-10-22T16:01:46.165Z,98372.22
2022-10-22T16:04:13.292Z,98362.34
2022-10-22T16:06:52.523Z,98374.81
2022-10-22T16:09:20.638Z,98373.91
2022-10-22T16:11:47.378Z,98373.66
2022-10-22T16:14:15.139Z,98375.28
2022-10-22T16:16:45.583Z,98376.72
2022-10-22T16:19:12.944Z,98380.13
2022-10-22T16:21:39.700Z,98387.06
2022-10-22T16:24:10.231Z,98387.66
2022-10-22T16:26:37.012Z,98386.59
2022-10-22T16:29:04.279Z,98387.19
2022-10-22T16:31:31.055Z,98384.88
2022-10-22T16:33:57.661Z,98390.41
2022-10-22T16:36:24.161Z,98386.28
2022-10-22T16:38:50.680Z,98381.78
2022-10-22T16:41:20.839Z,98389.13
2022-10-22T16:43:48.496Z,98386.06
2022-10-22T16:46:15.848Z,98389.38
2022-10-22T16:48:45.927Z,98393.72
2022-10-22T16:51:13.745Z,98399.88
2022-10-22T16:53:40.400Z,98401.75
2022-10-22T16:56:13.533Z,98405.41
2022-10-22T16:58:45.278Z,98410.31
2022-10-22T17:01:11.909Z,98409.25
2022-10-22T17:03:38.694Z,98400.97
2022-10-22T17:06:05.340Z,98406.50
2022-10-22T17:08:32.274Z,98411.84
2022-10-22T17:10:58.856Z,98410.38
2022-10-22T17:13:25.360Z,98414.25
2022-10-22T17:15:51.893Z,98410.75
2022-10-22T17:18:18.497Z,98413.81
2022-10-22T17:20:45.026Z,98414.63
2022-10-22T17:23:11.496Z,98415.44
2022-10-22T17:25:42.761Z,98410.06
2022-10-22T17:28:09.803Z,98416.59
2022-10-22T17:30:40.786Z,98411.66
2022-10-22T17:33:10.056Z,98410.44
2022-10-22T17:35:39.371Z,98422.66
2022-10-22T17:38:06.659Z,98423.69
2022-10-22T17:40:35.182Z,98425.34
2022-10-22T17:43:01.711Z,98427.41
2022-10-22T17:45:28.228Z,98429.78
2022-10-22T17:47:56.907Z,98425.47
2022-10-22T17:50:23.394Z,98430.72
2022-10-22T17:52:50.670Z,98436.44
2022-10-22T17:55:17.252Z,98442.16
2022-10-22T17:57:43.801Z,98448.31
2022-10-22T18:00:16.250Z,98450.34
2022-10-22T18:02:43.122Z,98443.06
2022-10-22T18:05:10.212Z,98439.28
2022-10-22T18:07:36.720Z,98436.72
2022-10-22T18:10:03.773Z,98444.72
2022-10-22T18:12:30.312Z,98448.22
2022-10-22T18:14:56.849Z,98448.03
2022-10-22T18:17:24.442Z,98452.72
2022-10-22T18:19:50.955Z,98437.72
2022-10-22T18:22:17.549Z,98441.97
2022-10-22T18:24:44.136Z,98443.16
2022-10-22T18:27:10.663Z,98435.53
2022-10-22T18:29:37.169Z,98436.47
2022-10-22T18:32:08.334Z,98438.47
2022-10-22T18:34:39.327Z,98443.97
2022-10-22T18:37:05.842Z,98435.53
2022-10-22T18:39:32.337Z,98433.25
2022-10-22T18:41:58.824Z,98438.75
2022-10-22T18:44:25.504Z,98436.28
2022-10-22T18:46:51.979Z,98438.13
2022-10-22T18:49:18.649Z,98434.81
2022-10-22T18:51:46.810Z,98434.34
2022-10-22T18:54:25.505Z,98432.84
2022-10-22T18:56:52.837Z,98433.06
2022-10-22T18:59:20.473Z,98423.59
2022-10-22T19:01:46.954Z,98426.91
2022-10-22T19:04:13.984Z,98425.25
2022-10-22T19:06:44.322Z,98429.56
2022-10-22T19:09:12.128Z,98426.25
2022-10-22T19:11:38.792Z,98424.41
2022-10-22T19:14:05.345Z,98422.50
2022-10-22T19:16:31.889Z,98432.13
2022-10-22T19:19:01.729Z,98426.63
2022-10-22T19:21:28.419Z,98421.47
2022-10-22T19:23:55.823Z,98432.50
2022-10-22T19:26:24.126Z,98422.66
2022-10-22T19:28:50.716Z,98427.63
2022-10-22T19:31:18.218Z,98428.81
2022-10-22T19:33:44.721Z,98431.31
2022-10-22T19:36:12.006Z,98435.44
2022-10-22T19:38:39.305Z,98435.00
2022-10-22T19:41:06.611Z,98431.84
2022-10-22T19:43:33.232Z,98439.66
2022-10-22T19:46:00.128Z,98432.38
2022-10-22T19:48:28.749Z,98425.94
2022-10-22T19:51:03.111Z,98432.31
2022-10-22T19:53:32.820Z,98426.59
2022-10-22T19:55:59.797Z,98432.75
2022-10-22T19:58:26.814Z,98424.97
2022-10-22T20:00:53.583Z,98424.09
2022-10-22T20:03:20.313Z,98427.34
2022-10-22T20:05:47.367Z,98425.94
2022-10-22T20:08:14.206Z,98425.78
2022-10-22T20:10:40.862Z,98431.66
2022-10-22T20:13:07.456Z,98430.16
2022-10-22T20:15:34.253Z,98424.84
2022-10-22T20:18:00.838Z,98424.03
2022-10-22T20:20:27.424Z,98435.50
2022-10-22T20:22:54.448Z,98434.69
2022-10-22T20:25:20.996Z,98436.69
2022-10-22T20:27:47.491Z,98452.66
2022-10-22T20:30:14.147Z,98450.66
2022-10-22T20:32:41.175Z,98435.88
2022-10-22T20:35:07.988Z,98446.22
2022-10-22T20:37:35.281Z,98451.03
2022-10-22T20:40:01.828Z,98447.69
2022-10-22T20:42:28.829Z,98452.66
2022-10-22T20:44:56.029Z,98454.88
2022-10-22T20:47:27.296Z,98449.53
2022-10-22T20:50:01.303Z,98444.88
2022-10-22T20:52:28.156Z,98448.16
2022-10-22T20:54:54.662Z,98457.16
2022-10-22T20:57:21.202Z,98452.66
2022-10-22T20:59:47.805Z,98457.53
2022-10-22T21:02:14.312Z,98450.19
2022-10-22T21:04:44.038Z,98443.03
2022-10-22T21:07:12.166Z,98445.03
2022-10-22T21:09:38.758Z,98436.94
2022-10-22T21:12:06.429Z,98439.13
2022-10-22T21:14:33.100Z,98435.47
2022-10-22T21:16:59.880Z,98445.94
2022-10-22T21:19:26.638Z,98438.78
2022-10-22T21:21:53.251Z,98429.22
2022-10-22T21:24:19.846Z,98428.41
2022-10-22T21:26:46.439Z,98422.25
2022-10-22T21:29:13.485Z,98436.59
2022-10-22T21:31:40.760Z,98433.09
2022-10-22T21:34:07.854Z,98435.47
2022-10-22T21:36:34.381Z,98436.84
2022-10-22T21:39:01.120Z,98436.03
2022-10-22T21:41:27.740Z,98437.66
2022-10-22T21:43:54.279Z,98436.84
2022-10-22T21:46:21.667Z,98431.88
2022-10-22T21:48:52.946Z,98424.72
2022-10-22T21:51:20.036Z,98428.91
2022-10-22T21:53:46.844Z,98430.56
2022-10-22T21:56:15.421Z,98431.06
2022-10-22T21:58:41.912Z,98430.31
2022-10-22T22:01:08.532Z,98435.06
2022-10-22T22:03:35.108Z,98437.09
2022-10-22T22:06:03.326Z,98434.44
2022-10-22T22:08:29.924Z,98434.94
2022-10-22T22:11:03.394Z,98425.50
2022-10-22T22:13:30.093Z,98426.19
2022-10-22T22:16:02.453Z,98413.88
2022-10-22T22:18:29.872Z,98429.38
2022-10-22T22:20:57.001Z,98432.69
2022-10-22T22:23:23.619Z,98425.06
2022-10-22T22:25:50.139Z,98427.72
2022-10-22T22:28:16.645Z,98428.56
2022-10-22T22:30:43.265Z,98422.22
2022-10-22T22:33:10.137Z,98424.91
2022-10-22T22:35:37.096Z,98425.72
2022-10-22T22:38:03.933Z,98433.53
2022-10-22T22:40:33.022Z,98426.53
2022-10-22T22:43:00.464Z,98425.25
2022-10-22T22:45:27.134Z,98433.75
2022-10-22T22:47:53.627Z,98431.63
2022-10-22T22:50:20.251Z,98443.47
2022-10-22T22:52:46.829Z,98439.75
2022-10-22T22:55:13.438Z,98432.28
2022-10-22T22:57:39.922Z,98427.78
2022-10-22T23:00:06.814Z,98422.81
2022-10-22T23:02:33.408Z,98422.34
2022-10-22T23:05:00.160Z,98413.72
2022-10-22T23:07:26.704Z,98412.88
2022-10-22T23:09:53.288Z,98419.53
2022-10-22T23:12:19.777Z,98417.19
2022-10-22T23:14:46.431Z,98416.88
2022-10-22T23:17:12.915Z,98409.72
2022-10-22T23:19:39.463Z,98405.63
2022-10-22T23:22:06.281Z,98401.16
2022-10-22T23:24:32.994Z,98394.34
2022-10-22T23:27:00.971Z,98396.31
2022-10-22T23:29:28.208Z,98389.38
2022-10-22T23:31:54.940Z,98394.34
2022-10-22T23:34:22.643Z,98396.63
2022-10-22T23:36:49.181Z,98389.00
2022-10-22T23:39:16.800Z,98387.22
2022-10-22T23:41:43.337Z,98399.84
2022-10-22T23:44:10.266Z,98399.50
2022-10-22T23:46:38.578Z,98397.69
2022-10-22T23:49:05.817Z,98392.88
2022-10-22T23:51:32.336Z,98389.56
2022-10-22T23:54:00.185Z,98388.59
2022-10-22T23:56:27.161Z,98389.78
2022-10-22T23:58:54.026Z,98378.81
